Terminal Aerodrome Forecast
Issued by NWS Midland/Odessa, TX

Home | Current Version | Previous Version | Text Only | Print | Product List | Glossary On
Versions: 1 2 3 4 5 6 7 8 9 10 11 12 13 14 15 16 17 18 19 20 21 22 23 24 25 26 27 28 29 30 31 32 33 34 35 36 37 38 39 40 41 42 43 44 45
000
FTUS44 KMAF 221100
TAFMAF
TAF
KMAF 221125Z 2212/2312 10007KT 5SM BR OVC003
      TEMPO 2212/2214 2SM BR
     FM221700 15008KT P6SM OVC012
     FM222100 15012KT P6SM BKN028
     FM230100 14017KT P6SM SCT030 SCT120 BKN250 PROB30 2306/2312
      TSRA BKN030CB=

USA.gov is the U.S. government's official web portal to all federal, state and local government web resources and services.